Wetterdaten: Freitag, 15.06.2012
Datum Zeit Temperatur Luftfeuchte Regen Wind Richtung Richtung Taupunkt Windchill Windben
15.06.2012 00:04 8,6 C 87 % 0,0 l/m 0,8 km/h (0 Bft) SO 135 6,6 C 8,3 C 0,0 km/h (0 Bft)
15.06.2012 00:09 8,7 C 87 % 0,0 l/m 1,0 km/h (0 Bft) N-NO 22 6,7 C 8,4 C 0,0 km/h (0 Bft)
15.06.2012 00:14 8,7 C 87 % 0,0 l/m 0,3 km/h (0 Bft) O-NO 67 6,7 C 8,5 C 0,0 km/h (0 Bft)
15.06.2012 00:19 8,7 C 87 % 0,0 l/m 0,2 km/h (0 Bft) NO 45 6,7 C 8,4 C 3,7 km/h (1 Bft)
15.06.2012 00:24 8,5 C 87 % 0,0 l/m 0,2 km/h (0 Bft) S-SO 157 6,5 C 8,4 C 0,0 km/h (0 Bft)
15.06.2012 00:29 8,4 C 87 % 0,0 l/m 0,3 km/h (0 Bft) SO 135 6,4 C 8,4 C 0,0 km/h (0 Bft)
15.06.2012 00:34 8,3 C 87 % 0,0 l/m 0,2 km/h (0 Bft) O-SO 112 6,3 C 8,4 C 0,0 km/h (0 Bft)
15.06.2012 00:39 8,2 C 87 % 0,0 l/m 0,0 km/h (0 Bft) SO 135 6,2 C 8,2 C 0,0 km/h (0 Bft)
15.06.2012 00:44 8,2 C 87 % 0,0 l/m 0,0 km/h (0 Bft) S-SW 202 6,2 C 8,0 C 0,0 km/h (0 Bft)
15.06.2012 00:49 8,1 C 87 % 0,0 l/m 0,0 km/h (0 Bft) O-SO 112 6,1 C 7,9 C 0,0 km/h (0 Bft)
15.06.2012 00:54 8,1 C 87 % 0,0 l/m 0,0 km/h (0 Bft) N-NO 22 6,1 C 7,9 C 0,0 km/h (0 Bft)
15.06.2012 00:59 8,0 C 87 % 0,0 l/m 0,0 km/h (0 Bft) S-SW 202 6,0 C 7,9 C 0,0 km/h (0 Bft)
15.06.2012 01:04 8,0 C 87 % 0,0 l/m 0,0 km/h (0 Bft) S 180 6,0 C 7,9 C 0,0 km/h (0 Bft)
15.06.2012 01:09 7,9 C 88 % 0,0 l/m 0,0 km/h (0 Bft) SW 225 6,0 C 7,9 C 0,0 km/h (0 Bft)
15.06.2012 01:14 8,0 C 88 % 0,0 l/m 0,0 km/h (0 Bft) SW 225 6,1 C 7,9 C 0,0 km/h (0 Bft)
15.06.2012 01:19 8,0 C 88 % 0,0 l/m 0,0 km/h (0 Bft) SW 225 6,1 C 7,9 C 0,0 km/h (0 Bft)
15.06.2012 01:24 7,9 C 88 % 0,0 l/m 0,0 km/h (0 Bft) S 180 6,0 C 7,9 C 0,0 km/h (0 Bft)
15.06.2012 01:29 7,9 C 88 % 0,0 l/m 0,0 km/h (0 Bft) S-SW 202 6,0 C 7,9 C 0,0 km/h (0 Bft)
15.06.2012 01:34 7,9 C 88 % 0,0 l/m 0,3 km/h (0 Bft) S-SW 202 6,0 C 8,0 C 3,7 km/h (1 Bft)
15.06.2012 01:39 7,9 C 88 % 0,0 l/m 0,5 km/h (0 Bft) S-SW 202 6,0 C 8,2 C 0,0 km/h (0 Bft)
15.06.2012 01:44 8,0 C 88 % 0,0 l/m 0,3 km/h (0 Bft) S 180 6,1 C 8,1 C 0,0 km/h (0 Bft)
15.06.2012 01:49 7,9 C 88 % 0,0 l/m 0,0 km/h (0 Bft) W-SW 247 6,0 C 8,1 C 0,0 km/h (0 Bft)
15.06.2012 01:54 8,0 C 88 % 0,0 l/m 0,2 km/h (0 Bft) S-SO 157 6,1 C 8,1 C 2,1 km/h (1 Bft)
15.06.2012 01:59 8,0 C 88 % 0,0 l/m 0,3 km/h (0 Bft) S-SO 157 6,1 C 8,2 C 0,0 km/h (0 Bft)
15.06.2012 02:04 8,0 C 88 % 0,0 l/m 0,5 km/h (0 Bft) N 360 6,1 C 8,3 C 0,0 km/h (0 Bft)
15.06.2012 02:09 8,1 C 88 % 0,0 l/m 0,3 km/h (0 Bft) S 180 6,2 C 8,3 C 0,0 km/h (0 Bft)
15.06.2012 02:14 8,1 C 88 % 0,0 l/m 0,2 km/h (0 Bft) NW 315 6,2 C 8,2 C 2,1 km/h (1 Bft)
15.06.2012 02:19 8,2 C 89 % 0,0 l/m 0,2 km/h (0 Bft) N-NW 337 6,5 C 8,1 C 0,0 km/h (0 Bft)
15.06.2012 02:24 8,0 C 88 % 0,0 l/m 0,2 km/h (0 Bft) N-NW 337 6,1 C 8,0 C 0,0 km/h (0 Bft)
15.06.2012 02:29 7,9 C 89 % 0,0 l/m 0,0 km/h (0 Bft) W-SW 247 6,2 C 7,9 C 0,0 km/h (0 Bft)
15.06.2012 02:34 8,0 C 89 % 0,0 l/m 0,3 km/h (0 Bft) N-NW 337 6,3 C 7,9 C 2,6 km/h (1 Bft)
15.06.2012 02:39 7,9 C 89 % 0,0 l/m 0,3 km/h (0 Bft) O-SO 112 6,2 C 7,9 C 0,0 km/h (0 Bft)
15.06.2012 02:44 8,0 C 89 % 0,0 l/m 0,2 km/h (0 Bft) W-SW 247 6,3 C 8,0 C 1,6 km/h (1 Bft)
15.06.2012 02:49 8,1 C 89 % 0,0 l/m 0,2 km/h (0 Bft) S-SW 202 6,4 C 8,2 C 2,4 km/h (1 Bft)
15.06.2012 02:54 8,1 C 89 % 0,0 l/m 0,2 km/h (0 Bft) O-NO 67 6,4 C 8,3 C 0,0 km/h (0 Bft)
15.06.2012 02:59 8,0 C 88 % 0,0 l/m 0,2 km/h (0 Bft) SW 225 6,1 C 8,2 C 1,6 km/h (1 Bft)
15.06.2012 03:04 8,1 C 88 % 0,0 l/m 0,2 km/h (0 Bft) O-NO 67 6,2 C 8,2 C 0,0 km/h (0 Bft)
15.06.2012 03:09 8,1 C 88 % 0,0 l/m 0,2 km/h (0 Bft) NO 45 6,2 C 8,2 C 0,0 km/h (0 Bft)
15.06.2012 03:14 8,0 C 88 % 0,0 l/m 0,0 km/h (0 Bft) SO 135 6,1 C 8,1 C 0,0 km/h (0 Bft)
15.06.2012 03:19 7,9 C 89 % 0,0 l/m 0,0 km/h (0 Bft) O-NO 67 6,2 C 8,0 C 0,0 km/h (0 Bft)
15.06.2012 03:24 8,0 C 88 % 0,0 l/m 0,3 km/h (0 Bft) O-NO 67 6,1 C 8,1 C 3,7 km/h (1 Bft)
15.06.2012 03:29 8,0 C 88 % 0,0 l/m 0,6 km/h (0 Bft) S 180 6,1 C 8,2 C 0,0 km/h (0 Bft)
15.06.2012 03:34 8,1 C 88 % 0,0 l/m 1,0 km/h (0 Bft) S 180 6,2 C 8,4 C 1,8 km/h (1 Bft)
15.06.2012 03:39 8,1 C 88 % 0,0 l/m 0,6 km/h (0 Bft) O-NO 67 6,2 C 8,6 C 0,0 km/h (0 Bft)
15.06.2012 03:44 8,1 C 88 % 0,0 l/m 0,3 km/h (0 Bft) S 180 6,2 C 8,4 C 1,9 km/h (1 Bft)
15.06.2012 03:49 7,9 C 89 % 0,0 l/m 0,0 km/h (0 Bft) NO 45 6,2 C 8,2 C 0,0 km/h (0 Bft)
15.06.2012 03:54 7,9 C 89 % 0,0 l/m 0,2 km/h (0 Bft) SO 135 6,2 C 8,2 C 1,6 km/h (1 Bft)
15.06.2012 03:59 7,9 C 89 % 0,0 l/m 0,3 km/h (0 Bft) S-SO 157 6,2 C 8,1 C 0,0 km/h (0 Bft)
15.06.2012 04:04 7,9 C 89 % 0,0 l/m 0,3 km/h (0 Bft) S-SO 157 6,2 C 8,1 C 2,6 km/h (1 Bft)
15.06.2012 04:09 8,0 C 88 % 0,0 l/m 0,5 km/h (0 Bft) N-NO 22 6,1 C 8,3 C 2,7 km/h (1 Bft)
15.06.2012 04:14 8,1 C 88 % 0,0 l/m 0,5 km/h (0 Bft) O-NO 67 6,2 C 8,4 C 1,9 km/h (1 Bft)
15.06.2012 04:19 8,1 C 88 % 0,0 l/m 0,6 km/h (0 Bft) NO 45 6,2 C 8,5 C 0,0 km/h (0 Bft)
15.06.2012 04:24 8,1 C 88 % 0,0 l/m 0,8 km/h (0 Bft) S-SW 202 6,2 C 8,6 C 2,6 km/h (1 Bft)
15.06.2012 04:29 8,0 C 88 % 0,0 l/m 1,1 km/h (1 Bft) SO 135 6,1 C 8,7 C 1,8 km/h (1 Bft)
15.06.2012 04:34 8,1 C 88 % 0,0 l/m 1,0 km/h (0 Bft) S 180 6,2 C 8,7 C 0,0 km/h (0 Bft)
15.06.2012 04:39 8,1 C 88 % 0,0 l/m 0,3 km/h (0 Bft) NO 45 6,2 C 8,6 C 0,0 km/h (0 Bft)
15.06.2012 04:44 7,9 C 89 % 0,0 l/m 0,3 km/h (0 Bft) S 180 6,2 C 8,4 C 2,1 km/h (1 Bft)
15.06.2012 04:49 7,9 C 89 % 0,0 l/m 0,3 km/h (0 Bft) N-NO 22 6,2 C 8,3 C 1,6 km/h (1 Bft)
15.06.2012 04:54 7,8 C 89 % 0,0 l/m 0,6 km/h (0 Bft) S 180 6,1 C 8,4 C 3,2 km/h (1 Bft)
15.06.2012 04:59 7,8 C 89 % 0,0 l/m 0,6 km/h (0 Bft) N-NO 22 6,1 C 8,3 C 1,6 km/h (1 Bft)
15.06.2012 05:04 7,9 C 89 % 0,0 l/m 0,2 km/h (0 Bft) S 180 6,2 C 8,1 C 1,8 km/h (1 Bft)
15.06.2012 05:09 7,9 C 89 % 0,0 l/m 0,2 km/h (0 Bft) SO 135 6,2 C 8,0 C 0,0 km/h (0 Bft)
15.06.2012 05:14 7,7 C 89 % 0,0 l/m 0,6 km/h (0 Bft) O-NO 67 6,0 C 8,0 C 0,0 km/h (0 Bft)
15.06.2012 05:19 7,9 C 89 % 0,0 l/m 1,0 km/h (0 Bft) S 180 6,2 C 8,0 C 2,1 km/h (1 Bft)
15.06.2012 05:24 7,9 C 89 % 0,0 l/m 0,8 km/h (0 Bft) S-SW 202 6,2 C 8,1 C 3,7 km/h (1 Bft)
15.06.2012 05:29 8,2 C 88 % 0,0 l/m 1,1 km/h (1 Bft) SO 135 6,3 C 8,2 C 0,0 km/h (0 Bft)
15.06.2012 05:34 8,2 C 88 % 0,0 l/m 1,0 km/h (0 Bft) S-SO 157 6,3 C 8,2 C 2,1 km/h (1 Bft)
15.06.2012 05:39 8,2 C 88 % 0,0 l/m 0,3 km/h (0 Bft) SO 135 6,3 C 8,5 C 0,0 km/h (0 Bft)
15.06.2012 05:44 8,2 C 88 % 0,0 l/m 0,2 km/h (0 Bft) O-SO 112 6,3 C 9,1 C 0,0 km/h (0 Bft)
15.06.2012 05:49 8,2 C 87 % 0,0 l/m 0,0 km/h (0 Bft) W 270 6,2 C 8,9 C 0,0 km/h (0 Bft)
15.06.2012 05:54 8,3 C 87 % 0,0 l/m 0,0 km/h (0 Bft) S 180 6,3 C 9,7 C 0,0 km/h (0 Bft)
15.06.2012 05:59 8,4 C 87 % 0,0 l/m 0,0 km/h (0 Bft) W-SW 247 6,4 C 10,6 C 0,0 km/h (0 Bft)
15.06.2012 06:04 9,6 C 86 % 0,0 l/m 0,2 km/h (0 Bft) NO 45 7,4 C 11,0 C 0,0 km/h (0 Bft)
15.06.2012 06:09 9,8 C 85 % 0,0 l/m 0,2 km/h (0 Bft) SO 135 8,2 C 12,1 C 2,1 km/h (1 Bft)
15.06.2012 06:14 10,1 C 82 % 0,0 l/m 0,2 km/h (0 Bft) S-SW 202 8,9 C 13,8 C 0,0 km/h (0 Bft)
15.06.2012 06:19 10,4 C 79 % 0,0 l/m 0,6 km/h (0 Bft) S-SO 157 9,6 C 14,6 C 2,7 km/h (1 Bft)
15.06.2012 06:24 11,6 C 74 % 0,0 l/m 0,8 km/h (0 Bft) SO 135 9,5 C 15,6 C 0,0 km/h (0 Bft)
15.06.2012 06:29 12,5 C 73 % 0,0 l/m 0,5 km/h (0 Bft) O-NO 67 9,4 C 16,0 C 0,0 km/h (0 Bft)
15.06.2012 06:34 13,9 C 68 % 0,0 l/m 0,3 km/h (0 Bft) O-SO 112 9,2 C 16,4 C 0,0 km/h (0 Bft)
15.06.2012 06:39 14,5 C 67 % 0,0 l/m 0,3 km/h (0 Bft) NW 315 9,1 C 17,2 C 0,0 km/h (0 Bft)
15.06.2012 06:44 15,6 C 65 % 0,0 l/m 0,0 km/h (0 Bft) N 360 9,3 C 17,4 C 0,0 km/h (0 Bft)
15.06.2012 06:49 16,2 C 63 % 0,0 l/m 0,2 km/h (0 Bft) SO 135 9,6 C 18,4 C 0,0 km/h (0 Bft)
15.06.2012 06:54 17,0 C 59 % 0,0 l/m 0,5 km/h (0 Bft) N-NO 22 8,9 C 19,0 C 0,0 km/h (0 Bft)
15.06.2012 06:59 17,5 C 59 % 0,0 l/m 0,5 km/h (0 Bft) S 180 9,4 C 19,4 C 0,0 km/h (0 Bft)
15.06.2012 07:04 18,5 C 58 % 0,0 l/m 0,3 km/h (0 Bft) N-NO 22 10,1 C 20,4 C 0,0 km/h (0 Bft)
15.06.2012 07:09 18,8 C 59 % 0,0 l/m 0,3 km/h (0 Bft) S 180 10,6 C 20,9 C 0,0 km/h (0 Bft)
15.06.2012 07:14 19,3 C 55 % 0,0 l/m 0,0 km/h (0 Bft) S-SW 202 10,0 C 21,5 C 0,0 km/h (0 Bft)
15.06.2012 07:19 19,5 C 56 % 0,0 l/m 0,2 km/h (0 Bft) O 90 10,5 C 21,8 C 0,0 km/h (0 Bft)
15.06.2012 07:24 19,7 C 56 % 0,0 l/m 0,3 km/h (0 Bft) N 360 10,7 C 22,2 C 0,0 km/h (0 Bft)
15.06.2012 07:29 20,2 C 54 % 0,0 l/m 0,2 km/h (0 Bft) N-NO 22 10,6 C 22,4 C 0,0 km/h (0 Bft)
15.06.2012 07:34 19,9 C 53 % 0,0 l/m 0,2 km/h (0 Bft) N-NO 22 10,0 C 22,8 C 0,0 km/h (0 Bft)
15.06.2012 07:39 20,5 C 53 % 0,0 l/m 0,5 km/h (0 Bft) S-SW 202 10,6 C 22,9 C 2,3 km/h (1 Bft)
15.06.2012 07:44 20,8 C 53 % 0,0 l/m 0,3 km/h (0 Bft) S 180 10,9 C 23,4 C 0,0 km/h (0 Bft)
15.06.2012 07:49 20,8 C 51 % 0,0 l/m 0,2 km/h (0 Bft) N-NW 337 10,3 C 24,0 C 0,0 km/h (0 Bft)
15.06.2012 07:54 21,1 C 53 % 0,0 l/m 0,0 km/h (0 Bft) N 360 11,1 C 24,4 C 0,0 km/h (0 Bft)
15.06.2012 07:59 21,7 C 52 % 0,0 l/m 0,0 km/h (0 Bft) NO 45 11,4 C 24,9 C 0,0 km/h (0 Bft)
15.06.2012 08:04 20,5 C 53 % 0,0 l/m 0,0 km/h (0 Bft) S 180 10,6 C 24,6 C 0,0 km/h (0 Bft)
15.06.2012 08:09 22,1 C 52 % 0,0 l/m 0,0 km/h (0 Bft) N 360 11,8 C 24,8 C 0,0 km/h (0 Bft)
15.06.2012 08:14 23,1 C 46 % 0,0 l/m 0,2 km/h (0 Bft) N-NW 337 10,8 C 25,5 C 1,8 km/h (1 Bft)
15.06.2012 08:19 23,0 C 48 % 0,0 l/m 0,2 km/h (0 Bft) W 270 11,4 C 25,8 C 0,0 km/h (0 Bft)
15.06.2012 08:24 23,0 C 47 % 0,0 l/m 0,3 km/h (0 Bft) W-NW 292 11,1 C 26,2 C 0,0 km/h (0 Bft)
15.06.2012 08:29 23,0 C 46 % 0,0 l/m 0,3 km/h (0 Bft) SO 135 11,4 C 26,3 C 3,1 km/h (1 Bft)
15.06.2012 08:34 22,4 C 47 % 0,0 l/m 0,2 km/h (0 Bft) S-SW 202 12,0 C 26,7 C 0,0 km/h (0 Bft)
15.06.2012 08:39 22,3 C 46 % 0,0 l/m 0,2 km/h (0 Bft) O 90 11,7 C 27,2 C 0,0 km/h (0 Bft)
15.06.2012 08:44 22,1 C 45 % 0,0 l/m 0,0 km/h (0 Bft) W-NW 292 11,2 C 27,9 C 0,0 km/h (0 Bft)
15.06.2012 08:49 22,3 C 43 % 0,0 l/m 0,0 km/h (0 Bft) N 360 11,0 C 28,1 C 2,1 km/h (1 Bft)
15.06.2012 08:54 22,7 C 43 % 0,0 l/m 0,0 km/h (0 Bft) NO 45 11,4 C 28,3 C 0,0 km/h (0 Bft)
15.06.2012 08:59 22,4 C 46 % 0,0 l/m 0,3 km/h (0 Bft) S 180 12,5 C 28,6 C 2,9 km/h (1 Bft)
15.06.2012 09:04 22,6 C 44 % 0,0 l/m 0,8 km/h (0 Bft) O-NO 67 12,0 C 27,9 C 0,0 km/h (0 Bft)
15.06.2012 09:09 22,8 C 44 % 0,0 l/m 1,3 km/h (1 Bft) W-SW 247 12,0 C 27,9 C 2,7 km/h (1 Bft)
15.06.2012 09:14 23,5 C 40 % 0,0 l/m 1,0 km/h (0 Bft) S 180 11,3 C 28,4 C 0,0 km/h (0 Bft)
15.06.2012 09:19 23,1 C 44 % 0,0 l/m 1,3 km/h (1 Bft) SW 225 10,8 C 28,2 C 2,1 km/h (1 Bft)
15.06.2012 09:24 22,7 C 47 % 0,0 l/m 0,6 km/h (0 Bft) W 270 10,8 C 26,3 C 0,0 km/h (0 Bft)
15.06.2012 09:29 23,1 C 45 % 0,0 l/m 0,2 km/h (0 Bft) N 360 12,0 C 26,4 C 0,0 km/h (0 Bft)
15.06.2012 09:34 22,6 C 47 % 0,0 l/m 0,2 km/h (0 Bft) NW 315 10,7 C 26,8 C 1,6 km/h (1 Bft)
15.06.2012 09:39 22,0 C 47 % 0,0 l/m 0,2 km/h (0 Bft) N-NW 337 10,2 C 25,7 C 0,0 km/h (0 Bft)
15.06.2012 09:44 21,0 C 48 % 0,0 l/m 0,3 km/h (0 Bft) N-NW 337 9,6 C 24,8 C 2,3 km/h (1 Bft)
15.06.2012 09:49 22,0 C 48 % 0,0 l/m 0,5 km/h (0 Bft) N-NO 22 11,7 C 24,7 C 0,0 km/h (0 Bft)
15.06.2012 09:54 22,7 C 44 % 0,0 l/m 1,1 km/h (1 Bft) NW 315 10,3 C 25,8 C 2,9 km/h (1 Bft)
15.06.2012 09:59 22,6 C 46 % 0,0 l/m 1,6 km/h (1 Bft) NW 315 10,4 C 25,3 C 2,4 km/h (1 Bft)
15.06.2012 10:04 23,3 C 47 % 0,0 l/m 2,1 km/h (1 Bft) W-NW 292 12,6 C 25,2 C 4,0 km/h (1 Bft)
15.06.2012 10:09 23,5 C 44 % 0,0 l/m 2,6 km/h (1 Bft) W-NW 292 11,3 C 25,8 C 4,5 km/h (1 Bft)
15.06.2012 10:14 23,7 C 45 % 0,0 l/m 3,1 km/h (1 Bft) N 360 11,1 C 26,0 C 3,4 km/h (1 Bft)
15.06.2012 10:19 23,9 C 43 % 0,0 l/m 2,4 km/h (1 Bft) W-NW 292 10,5 C 26,0 C 3,2 km/h (1 Bft)
15.06.2012 10:24 23,8 C 44 % 0,0 l/m 2,6 km/h (1 Bft) W 270 11,0 C 26,3 C 6,9 km/h (2 Bft)
15.06.2012 10:29 23,1 C 38 % 0,0 l/m 3,4 km/h (1 Bft) N-NW 337 8,0 C 26,0 C 3,2 km/h (1 Bft)
15.06.2012 10:34 24,3 C 42 % 0,0 l/m 2,4 km/h (1 Bft) W-NW 292 10,6 C 26,3 C 3,7 km/h (1 Bft)
15.06.2012 10:39 24,7 C 44 % 0,0 l/m 2,1 km/h (1 Bft) NW 315 11,6 C 26,6 C 3,5 km/h (1 Bft)
15.06.2012 10:44 24,8 C 38 % 0,0 l/m 3,9 km/h (1 Bft) N-NW 337 9,5 C 26,7 C 2,1 km/h (1 Bft)
15.06.2012 10:49 24,8 C 36 % 0,0 l/m 4,3 km/h (1 Bft) W 270 8,7 C 26,8 C 4,8 km/h (1 Bft)
15.06.2012 10:54 24,8 C 36 % 0,0 l/m 4,2 km/h (1 Bft) N-NO 22 8,7 C 26,8 C 7,4 km/h (2 Bft)
15.06.2012 10:59 24,4 C 35 % 0,0 l/m 4,3 km/h (1 Bft) N-NW 337 7,9 C 26,9 C 1,9 km/h (1 Bft)
15.06.2012 11:04 25,0 C 34 % 0,0 l/m 3,7 km/h (1 Bft) N 360 8,0 C 27,5 C 7,2 km/h (2 Bft)
15.06.2012 11:09 24,9 C 36 % 0,0 l/m 3,1 km/h (1 Bft) W 270 8,8 C 27,4 C 11,3 km/h (2 Bft)
15.06.2012 11:14 24,5 C 35 % 0,0 l/m 4,3 km/h (1 Bft) W-SW 247 8,0 C 27,2 C 7,2 km/h (2 Bft)
15.06.2012 11:19 24,7 C 34 % 0,0 l/m 4,5 km/h (1 Bft) N 360 7,8 C 27,1 C 5,8 km/h (2 Bft)
15.06.2012 11:24 25,1 C 32 % 0,0 l/m 4,0 km/h (1 Bft) O-NO 67 7,2 C 27,1 C 3,7 km/h (1 Bft)
15.06.2012 11:29 25,4 C 31 % 0,0 l/m 3,9 km/h (1 Bft) S 180 7,0 C 27,5 C 6,8 km/h (2 Bft)
15.06.2012 11:34 26,0 C 32 % 0,0 l/m 3,9 km/h (1 Bft) SW 225 8,0 C 27,8 C 4,3 km/h (1 Bft)
15.06.2012 11:39 26,0 C 30 % 0,0 l/m 4,3 km/h (1 Bft) W-NW 292 7,1 C 28,0 C 2,9 km/h (1 Bft)
15.06.2012 11:44 26,2 C 30 % 0,0 l/m 3,7 km/h (1 Bft) W-SW 247 7,2 C 28,1 C 4,5 km/h (1 Bft)
15.06.2012 11:49 26,5 C 30 % 0,0 l/m 3,4 km/h (1 Bft) S-SO 157 7,5 C 28,4 C 6,6 km/h (2 Bft)
15.06.2012 11:54 25,9 C 29 % 0,0 l/m 4,7 km/h (1 Bft) SW 225 6,5 C 28,0 C 5,5 km/h (1 Bft)
15.06.2012 11:59 26,2 C 29 % 0,0 l/m 4,5 km/h (1 Bft) W 270 6,7 C 28,0 C 6,3 km/h (2 Bft)
15.06.2012 12:04 26,6 C 30 % 0,0 l/m 2,7 km/h (1 Bft) S 180 7,6 C 28,4 C 2,1 km/h (1 Bft)
15.06.2012 12:09 27,1 C 30 % 0,0 l/m 3,1 km/h (1 Bft) S 180 8,0 C 28,7 C 6,9 km/h (2 Bft)
15.06.2012 12:14 27,4 C 28 % 0,0 l/m 3,1 km/h (1 Bft) W-SW 247 7,3 C 29,1 C 6,4 km/h (2 Bft)
15.06.2012 12:19 26,8 C 28 % 0,0 l/m 3,2 km/h (1 Bft) W-NW 292 6,8 C 29,0 C 6,0 km/h (2 Bft)
15.06.2012 12:24 26,0 C 26 % 0,0 l/m 3,7 km/h (1 Bft) N-NO 22 5,0 C 28,7 C 4,5 km/h (1 Bft)
15.06.2012 12:29 26,5 C 28 % 0,0 l/m 4,7 km/h (1 Bft) W 270 6,5 C 28,3 C 6,1 km/h (2 Bft)
15.06.2012 12:34 27,1 C 29 % 0,0 l/m 4,5 km/h (1 Bft) SW 225 7,5 C 28,4 C 4,5 km/h (1 Bft)
15.06.2012 12:39 26,5 C 28 % 0,0 l/m 4,3 km/h (1 Bft) W-NW 292 6,5 C 28,5 C 7,7 km/h (2 Bft)
15.06.2012 12:44 26,0 C 29 % 0,0 l/m 4,7 km/h (1 Bft) W-NW 292 6,6 C 28,5 C 8,2 km/h (2 Bft)
15.06.2012 12:49 26,5 C 30 % 0,0 l/m 4,7 km/h (1 Bft) W 270 7,5 C 28,2 C 3,7 km/h (1 Bft)
15.06.2012 12:54 27,0 C 28 % 0,0 l/m 5,3 km/h (1 Bft) S-SW 202 6,9 C 28,6 C 8,9 km/h (2 Bft)
15.06.2012 13:00 27,0 C 28 % 0,0 l/m 5,3 km/h (1 Bft) S-SW 202 6,9 C 28,6 C 8,9 km/h (2 Bft)
15.06.2012 13:05 26,9 C 29 % 0,0 l/m 5,1 km/h (1 Bft) W 270 7,3 C 28,5 C 7,4 km/h (2 Bft)
15.06.2012 13:10 26,7 C 30 % 0,0 l/m 5,1 km/h (1 Bft) SO 135 7,7 C 28,8 C 5,5 km/h (1 Bft)
15.06.2012 13:15 26,9 C 30 % 0,0 l/m 6,4 km/h (2 Bft) SO 135 7,8 C 28,4 C 13,4 km/h (3 Bft)
15.06.2012 13:20 27,3 C 30 % 0,0 l/m 7,6 km/h (2 Bft) S-SO 157 8,2 C 28,0 C 18,7 km/h (3 Bft)
15.06.2012 13:25 27,2 C 30 % 0,0 l/m 8,2 km/h (2 Bft) S 180 8,1 C 27,8 C 13,2 km/h (3 Bft)
15.06.2012 13:30 27,2 C 30 % 0,0 l/m 8,7 km/h (2 Bft) SO 135 8,1 C 27,1 C 10,0 km/h (2 Bft)
15.06.2012 13:35 27,2 C 29 % 0,0 l/m 7,9 km/h (2 Bft) S 180 7,6 C 27,1 C 7,6 km/h (2 Bft)
15.06.2012 13:40 27,3 C 28 % 0,0 l/m 6,6 km/h (2 Bft) SO 135 7,2 C 27,7 C 6,6 km/h (2 Bft)
15.06.2012 13:45 27,2 C 30 % 0,0 l/m 6,6 km/h (2 Bft) S 180 8,1 C 27,9 C 5,0 km/h (1 Bft)
15.06.2012 13:50 27,5 C 29 % 0,0 l/m 7,1 km/h (2 Bft) O 90 7,9 C 28,2 C 9,5 km/h (2 Bft)
15.06.2012 13:55 27,8 C 27 % 0,0 l/m 7,1 km/h (2 Bft) S-SO 157 7,1 C 28,2 C 11,9 km/h (2 Bft)
15.06.2012 14:00 27,4 C 28 % 0,0 l/m 8,2 km/h (2 Bft) O 90 7,3 C 28,0 C 11,1 km/h (2 Bft)
15.06.2012 14:05 27,7 C 28 % 0,0 l/m 8,5 km/h (2 Bft) S 180 7,5 C 28,0 C 10,0 km/h (2 Bft)
15.06.2012 14:10 27,7 C 30 % 0,0 l/m 7,7 km/h (2 Bft) O 90 8,5 C 28,1 C 8,7 km/h (2 Bft)
15.06.2012 14:15 27,6 C 30 % 0,0 l/m 7,2 km/h (2 Bft) O 90 8,4 C 28,3 C 10,6 km/h (2 Bft)
15.06.2012 14:20 28,1 C 29 % 0,0 l/m 7,4 km/h (2 Bft) SO 135 8,4 C 28,4 C 8,9 km/h (2 Bft)
15.06.2012 14:25 27,9 C 29 % 0,0 l/m 6,9 km/h (2 Bft) SO 135 8,2 C 28,6 C 9,0 km/h (2 Bft)
15.06.2012 14:30 27,9 C 29 % 0,0 l/m 6,4 km/h (2 Bft) S 180 8,2 C 28,8 C 7,4 km/h (2 Bft)
15.06.2012 14:35 28,2 C 29 % 0,0 l/m 6,3 km/h (2 Bft) S 180 8,5 C 29,1 C 8,7 km/h (2 Bft)
15.06.2012 14:40 28,0 C 28 % 0,0 l/m 5,5 km/h (1 Bft) S 180 7,8 C 29,2 C 10,5 km/h (2 Bft)
15.06.2012 14:45 28,0 C 29 % 0,0 l/m 6,0 km/h (2 Bft) S 180 8,3 C 29,4 C 11,9 km/h (2 Bft)
15.06.2012 14:50 27,9 C 29 % 0,0 l/m 6,8 km/h (2 Bft) S 180 8,2 C 29,4 C 10,5 km/h (2 Bft)
15.06.2012 14:55 28,0 C 28 % 0,0 l/m 6,8 km/h (2 Bft) S-SO 157 7,8 C 29,1 C 5,3 km/h (1 Bft)
15.06.2012 15:00 28,3 C 29 % 0,0 l/m 6,3 km/h (2 Bft) S 180 8,5 C 29,3 C 7,4 km/h (2 Bft)
15.06.2012 15:05 28,2 C 29 % 0,0 l/m 6,3 km/h (2 Bft) O 90 8,5 C 29,3 C 11,9 km/h (2 Bft)
15.06.2012 15:10 28,0 C 28 % 0,0 l/m 7,1 km/h (2 Bft) S-SO 157 7,8 C 29,0 C 6,8 km/h (2 Bft)
15.06.2012 15:15 27,8 C 30 % 0,0 l/m 7,1 km/h (2 Bft) S-SW 202 8,6 C 29,0 C 7,9 km/h (2 Bft)
15.06.2012 15:20 28,4 C 29 % 0,0 l/m 6,1 km/h (2 Bft) S 180 8,6 C 29,5 C 5,8 km/h (2 Bft)
15.06.2012 15:25 28,3 C 28 % 0,0 l/m 6,3 km/h (2 Bft) S 180 8,0 C 29,5 C 9,8 km/h (2 Bft)
15.06.2012 15:30 28,0 C 27 % 0,0 l/m 6,1 km/h (2 Bft) S 180 7,2 C 29,6 C 12,7 km/h (3 Bft)
15.06.2012 15:35 28,1 C 27 % 0,0 l/m 6,4 km/h (2 Bft) SO 135 7,3 C 29,5 C 4,5 km/h (1 Bft)
15.06.2012 15:40 28,0 C 26 % 0,0 l/m 7,1 km/h (2 Bft) S-SO 157 6,7 C 29,5 C 7,6 km/h (2 Bft)
15.06.2012 15:45 28,0 C 27 % 0,0 l/m 5,1 km/h (1 Bft) SO 135 7,2 C 29,7 C 3,9 km/h (1 Bft)
15.06.2012 15:50 28,3 C 26 % 0,0 l/m 4,7 km/h (1 Bft) S 180 6,9 C 30,1 C 5,0 km/h (1 Bft)
15.06.2012 15:55 28,4 C 27 % 0,0 l/m 3,9 km/h (1 Bft) S-SO 157 7,6 C 30,4 C 3,4 km/h (1 Bft)
15.06.2012 16:00 28,6 C 27 % 0,0 l/m 4,2 km/h (1 Bft) SO 135 7,8 C 30,8 C 8,4 km/h (2 Bft)
15.06.2012 16:05 28,5 C 27 % 0,0 l/m 5,8 km/h (2 Bft) S 180 7,7 C 30,6 C 5,1 km/h (1 Bft)
15.06.2012 16:10 28,7 C 26 % 0,0 l/m 5,1 km/h (1 Bft) S 180 7,3 C 30,7 C 4,5 km/h (1 Bft)
15.06.2012 16:15 28,5 C 27 % 0,0 l/m 4,3 km/h (1 Bft) SW 225 7,7 C 30,8 C 5,5 km/h (1 Bft)
15.06.2012 16:20 28,5 C 26 % 0,0 l/m 5,0 km/h (1 Bft) W-SW 247 7,1 C 30,8 C 4,8 km/h (1 Bft)
15.06.2012 16:25 28,4 C 26 % 0,0 l/m 5,1 km/h (1 Bft) S 180 7,0 C 30,8 C 6,1 km/h (2 Bft)
15.06.2012 16:30 28,3 C 26 % 0,0 l/m 5,1 km/h (1 Bft) S 180 6,9 C 30,6 C 7,1 km/h (2 Bft)
15.06.2012 16:35 28,4 C 26 % 0,0 l/m 5,1 km/h (1 Bft) S-SW 202 7,0 C 30,7 C 6,4 km/h (2 Bft)
15.06.2012 16:40 27,9 C 28 % 0,0 l/m 5,1 km/h (1 Bft) S-SW 202 7,7 C 30,7 C 3,1 km/h (1 Bft)
15.06.2012 16:45 27,6 C 26 % 0,0 l/m 5,0 km/h (1 Bft) S 180 6,4 C 30,6 C 4,3 km/h (1 Bft)
15.06.2012 16:50 27,3 C 27 % 0,0 l/m 5,1 km/h (1 Bft) W-SW 247 6,6 C 30,4 C 3,5 km/h (1 Bft)
15.06.2012 16:55 27,4 C 29 % 0,0 l/m 4,5 km/h (1 Bft) N-NO 22 7,8 C 30,9 C 5,1 km/h (1 Bft)
15.06.2012 17:00 26,9 C 29 % 0,0 l/m 4,0 km/h (1 Bft) S-SW 202 7,3 C 31,0 C 5,8 km/h (2 Bft)
15.06.2012 17:05 26,6 C 28 % 0,0 l/m 5,0 km/h (1 Bft) O-SO 112 6,6 C 30,9 C 4,8 km/h (1 Bft)
15.06.2012 17:10 26,3 C 29 % 0,0 l/m 3,9 km/h (1 Bft) S 180 6,8 C 31,5 C 4,7 km/h (1 Bft)
15.06.2012 17:15 26,2 C 30 % 0,0 l/m 3,7 km/h (1 Bft) S-SO 157 7,2 C 31,3 C 5,1 km/h (1 Bft)
15.06.2012 17:20 26,2 C 30 % 0,0 l/m 5,0 km/h (1 Bft) S-SW 202 7,2 C 31,0 C 6,4 km/h (2 Bft)
15.06.2012 17:25 25,9 C 30 % 0,0 l/m 5,0 km/h (1 Bft) W-SW 247 7,0 C 30,8 C 3,5 km/h (1 Bft)
15.06.2012 17:30 26,0 C 30 % 0,0 l/m 4,0 km/h (1 Bft) SW 225 7,1 C 30,9 C 3,1 km/h (1 Bft)
15.06.2012 17:35 25,8 C 30 % 0,0 l/m 2,6 km/h (1 Bft) W-SW 247 6,9 C 31,3 C 0,0 km/h (0 Bft)
15.06.2012 17:40 25,8 C 30 % 0,0 l/m 2,3 km/h (1 Bft) NW 315 6,9 C 31,9 C 6,4 km/h (2 Bft)
15.06.2012 17:45 25,8 C 30 % 0,0 l/m 3,4 km/h (1 Bft) N-NW 337 6,9 C 31,6 C 5,1 km/h (1 Bft)
15.06.2012 17:50 25,7 C 30 % 0,0 l/m 3,7 km/h (1 Bft) W-SW 247 6,8 C 31,2 C 2,3 km/h (1 Bft)
15.06.2012 17:55 25,7 C 30 % 0,0 l/m 2,3 km/h (1 Bft) W 270 6,8 C 31,4 C 0,0 km/h (0 Bft)
15.06.2012 18:00 25,7 C 30 % 0,0 l/m 1,8 km/h (1 Bft) O-NO 67 6,8 C 32,0 C 4,5 km/h (1 Bft)
15.06.2012 18:05 25,7 C 30 % 0,0 l/m 2,1 km/h (1 Bft) N-NW 337 6,8 C 32,0 C 4,3 km/h (1 Bft)
15.06.2012 18:10 25,8 C 31 % 0,0 l/m 3,5 km/h (1 Bft) W-NW 292 7,4 C 31,6 C 5,6 km/h (1 Bft)
15.06.2012 18:15 25,9 C 31 % 0,0 l/m 3,5 km/h (1 Bft) NW 315 7,5 C 31,2 C 1,8 km/h (1 Bft)
15.06.2012 18:20 25,7 C 31 % 0,0 l/m 2,7 km/h (1 Bft) NW 315 7,3 C 31,3 C 2,9 km/h (1 Bft)
15.06.2012 18:25 25,7 C 31 % 0,0 l/m 1,9 km/h (1 Bft) W-NW 292 7,3 C 31,3 C 0,0 km/h (0 Bft)
15.06.2012 18:30 25,8 C 30 % 0,0 l/m 1,1 km/h (1 Bft) W-NW 292 6,9 C 32,1 C 3,4 km/h (1 Bft)
15.06.2012 18:35 25,7 C 32 % 0,0 l/m 1,3 km/h (1 Bft) W-NW 292 7,8 C 32,2 C 4,2 km/h (1 Bft)
15.06.2012 18:40 25,6 C 33 % 0,0 l/m 1,9 km/h (1 Bft) N 360 8,1 C 32,1 C 2,6 km/h (1 Bft)
15.06.2012 18:45 25,7 C 33 % 0,0 l/m 1,1 km/h (1 Bft) N-NO 22 8,2 C 32,2 C 3,4 km/h (1 Bft)
15.06.2012 18:50 25,3 C 34 % 0,0 l/m 1,4 km/h (1 Bft) W-NW 292 8,3 C 32,1 C 4,3 km/h (1 Bft)
15.06.2012 18:55 25,1 C 35 % 0,0 l/m 1,9 km/h (1 Bft) W-NW 292 8,6 C 31,7 C 2,9 km/h (1 Bft)
15.06.2012 19:00 25,2 C 36 % 0,0 l/m 1,9 km/h (1 Bft) W 270 9,1 C 31,4 C 2,7 km/h (1 Bft)
15.06.2012 19:05 25,0 C 36 % 0,0 l/m 1,4 km/h (1 Bft) N-NW 337 8,9 C 31,3 C 0,0 km/h (0 Bft)
15.06.2012 19:10 25,0 C 37 % 0,0 l/m 1,9 km/h (1 Bft) W 270 9,3 C 31,1 C 6,1 km/h (2 Bft)
15.06.2012 19:15 25,1 C 34 % 0,0 l/m 2,7 km/h (1 Bft) O-SO 112 8,1 C 30,7 C 4,8 km/h (1 Bft)
15.06.2012 19:20 25,2 C 36 % 0,0 l/m 2,7 km/h (1 Bft) N-NW 337 9,1 C 30,3 C 0,0 km/h (0 Bft)
15.06.2012 19:25 24,7 C 37 % 0,0 l/m 1,9 km/h (1 Bft) N-NW 337 9,0 C 30,3 C 4,5 km/h (1 Bft)
15.06.2012 19:30 24,8 C 38 % 0,0 l/m 2,3 km/h (1 Bft) N-NW 337 9,5 C 29,8 C 4,3 km/h (1 Bft)
15.06.2012 19:35 24,7 C 36 % 0,0 l/m 2,1 km/h (1 Bft) NW 315 8,6 C 29,7 C 0,0 km/h (0 Bft)
15.06.2012 19:40 24,6 C 37 % 0,0 l/m 1,3 km/h (1 Bft) W 270 8,9 C 29,7 C 1,8 km/h (1 Bft)
15.06.2012 19:45 24,6 C 37 % 0,0 l/m 2,1 km/h (1 Bft) W-NW 292 8,9 C 29,4 C 5,5 km/h (1 Bft)
15.06.2012 19:50 24,4 C 38 % 0,0 l/m 1,8 km/h (1 Bft) O-SO 112 9,2 C 29,1 C 1,8 km/h (1 Bft)
15.06.2012 19:55 24,2 C 39 % 0,0 l/m 1,3 km/h (1 Bft) S 180 9,4 C 29,1 C 2,6 km/h (1 Bft)
15.06.2012 20:00 24,0 C 38 % 0,0 l/m 1,3 km/h (1 Bft) NW 315 8,8 C 28,9 C 2,9 km/h (1 Bft)
15.06.2012 20:05 23,8 C 40 % 0,0 l/m 1,4 km/h (1 Bft) W 270 9,4 C 28,6 C 1,8 km/h (1 Bft)
15.06.2012 20:10 23,5 C 41 % 0,0 l/m 1,0 km/h (0 Bft) NO 45 9,5 C 28,3 C 0,0 km/h (0 Bft)
15.06.2012 20:15 23,4 C 42 % 0,0 l/m 0,3 km/h (0 Bft) N-NO 22 9,7 C 28,4 C 0,0 km/h (0 Bft)
15.06.2012 20:20 22,8 C 45 % 0,0 l/m 0,0 km/h (0 Bft) NO 45 10,2 C 28,5 C 0,0 km/h (0 Bft)
15.06.2012 20:25 22,7 C 45 % 0,0 l/m 0,2 km/h (0 Bft) N-NO 22 10,1 C 28,1 C 0,0 km/h (0 Bft)
15.06.2012 20:30 22,6 C 45 % 0,0 l/m 0,2 km/h (0 Bft) N 360 10,1 C 27,2 C 0,0 km/h (0 Bft)
15.06.2012 20:35 22,2 C 46 % 0,0 l/m 0,0 km/h (0 Bft) SO 135 10,0 C 26,4 C 0,0 km/h (0 Bft)
15.06.2012 20:40 21,4 C 48 % 0,0 l/m 0,2 km/h (0 Bft) N 360 9,9 C 25,3 C 0,0 km/h (0 Bft)
15.06.2012 20:45 21,2 C 49 % 0,0 l/m 0,2 km/h (0 Bft) N-NO 22 10,1 C 24,5 C 1,8 km/h (1 Bft)
15.06.2012 20:50 20,6 C 49 % 0,0 l/m 0,3 km/h (0 Bft) NO 45 9,5 C 23,1 C 0,0 km/h (0 Bft)
15.06.2012 20:55 20,3 C 51 % 0,0 l/m 0,3 km/h (0 Bft) N-NO 22 9,8 C 22,5 C 0,0 km/h (0 Bft)
15.06.2012 21:00 19,3 C 54 % 0,0 l/m 0,5 km/h (0 Bft) N 360 9,8 C 21,5 C 2,3 km/h (1 Bft)
15.06.2012 21:05 18,8 C 56 % 0,0 l/m 1,3 km/h (1 Bft) NO 45 9,8 C 20,7 C 2,4 km/h (1 Bft)
15.06.2012 21:10 18,4 C 58 % 0,0 l/m 1,3 km/h (1 Bft) N 360 10,0 C 19,7 C 1,8 km/h (1 Bft)
15.06.2012 21:15 18,3 C 59 % 0,0 l/m 0,8 km/h (0 Bft) N 360 10,1 C 19,0 C 0,0 km/h (0 Bft)
15.06.2012 21:20 18,0 C 59 % 0,0 l/m 0,6 km/h (0 Bft) NO 45 9,9 C 18,2 C 1,8 km/h (1 Bft)
15.06.2012 21:25 17,4 C 60 % 0,0 l/m 1,4 km/h (1 Bft) N-NO 22 9,6 C 17,8 C 3,1 km/h (1 Bft)
15.06.2012 21:30 16,6 C 63 % 0,0 l/m 1,4 km/h (1 Bft) N-NO 22 9,5 C 17,2 C 0,0 km/h (0 Bft)
15.06.2012 21:35 16,9 C 63 % 0,0 l/m 0,8 km/h (0 Bft) N 360 9,8 C 16,7 C 0,0 km/h (0 Bft)
15.06.2012 21:40 17,1 C 62 % 0,0 l/m 1,1 km/h (1 Bft) N-NO 22 9,8 C 16,5 C 2,4 km/h (1 Bft)
15.06.2012 21:45 17,0 C 62 % 0,0 l/m 1,4 km/h (1 Bft) NO 45 9,7 C 16,6 C 2,3 km/h (1 Bft)
15.06.2012 21:50 17,0 C 62 % 0,0 l/m 1,9 km/h (1 Bft) NO 45 9,7 C 16,5 C 2,1 km/h (1 Bft)
15.06.2012 21:55 16,8 C 62 % 0,0 l/m 1,6 km/h (1 Bft) NO 45 9,5 C 16,5 C 0,0 km/h (0 Bft)
15.06.2012 22:00 16,5 C 63 % 0,0 l/m 0,5 km/h (0 Bft) N-NO 22 9,4 C 16,4 C 0,0 km/h (0 Bft)
15.06.2012 22:05 15,8 C 66 % 0,0 l/m 0,3 km/h (0 Bft) NO 45 9,5 C 16,0 C 0,0 km/h (0 Bft)
15.06.2012 22:10 15,8 C 67 % 0,0 l/m 0,6 km/h (0 Bft) NO 45 9,7 C 15,6 C 0,0 km/h (0 Bft)
15.06.2012 22:15 15,8 C 67 % 0,0 l/m 1,0 km/h (0 Bft) NO 45 9,7 C 15,5 C 2,7 km/h (1 Bft)
15.06.2012 22:20 15,5 C 67 % 0,0 l/m 1,3 km/h (1 Bft) N-NO 22 9,4 C 15,6 C 2,1 km/h (1 Bft)
15.06.2012 22:25 15,5 C 67 % 0,0 l/m 1,1 km/h (1 Bft) NO 45 9,4 C 15,6 C 1,9 km/h (1 Bft)
15.06.2012 22:30 15,4 C 66 % 0,0 l/m 0,3 km/h (0 Bft) NO 45 9,1 C 15,6 C 0,0 km/h (0 Bft)
15.06.2012 22:35 15,3 C 66 % 0,0 l/m 0,2 km/h (0 Bft) S 180 9,0 C 15,4 C 0,0 km/h (0 Bft)
15.06.2012 22:40 15,2 C 66 % 0,0 l/m 0,2 km/h (0 Bft) N-NO 22 8,9 C 15,4 C 2,1 km/h (1 Bft)
15.06.2012 22:45 15,4 C 67 % 0,0 l/m 0,5 km/h (0 Bft) NO 45 9,3 C 15,4 C 1,6 km/h (1 Bft)
15.06.2012 22:50 15,4 C 67 % 0,0 l/m 1,0 km/h (0 Bft) O-NO 67 9,3 C 15,5 C 2,1 km/h (1 Bft)
15.06.2012 22:55 15,7 C 67 % 0,0 l/m 1,8 km/h (1 Bft) O 90 9,6 C 15,6 C 4,5 km/h (1 Bft)
15.06.2012 23:00 15,6 C 69 % 0,0 l/m 3,2 km/h (1 Bft) N 360 9,9 C 15,8 C 5,1 km/h (1 Bft)
15.06.2012 23:05 15,7 C 67 % 0,0 l/m 3,5 km/h (1 Bft) NO 45 9,6 C 15,7 C 2,1 km/h (1 Bft)
15.06.2012 23:10 15,4 C 67 % 0,0 l/m 2,3 km/h (1 Bft) N-NW 337 9,3 C 15,7 C 2,7 km/h (1 Bft)
15.06.2012 23:15 15,3 C 67 % 0,0 l/m 1,3 km/h (1 Bft) N-NO 22 9,2 C 15,6 C 1,6 km/h (1 Bft)
15.06.2012 23:20 15,1 C 68 % 0,0 l/m 1,1 km/h (1 Bft) NO 45 9,2 C 15,3 C 1,6 km/h (1 Bft)
15.06.2012 23:25 15,2 C 67 % 0,0 l/m 0,6 km/h (0 Bft) N-NW 337 9,1 C 15,1 C 0,0 km/h (0 Bft)
15.06.2012 23:30 15,3 C 67 % 0,0 l/m 0,3 km/h (0 Bft) S 180 9,2 C 15,0 C 1,8 km/h (1 Bft)
15.06.2012 23:35 15,0 C 68 % 0,0 l/m 0,3 km/h (0 Bft) O 90 9,1 C 14,9 C 0,0 km/h (0 Bft)
15.06.2012 23:40 14,8 C 69 % 0,0 l/m 1,0 km/h (0 Bft) NO 45 9,2 C 14,7 C 1,6 km/h (1 Bft)
15.06.2012 23:45 14,6 C 70 % 0,0 l/m 1,1 km/h (1 Bft) NO 45 9,2 C 14,6 C 0,0 km/h (0 Bft)
15.06.2012 23:50 14,6 C 70 % 0,0 l/m 1,1 km/h (1 Bft) O 90 9,2 C 14,5 C 2,7 km/h (1 Bft)
15.06.2012 23:55 14,5 C 70 % 0,0 l/m 0,8 km/h (0 Bft) N-NO 22 9,1 C 14,3 C 2,6 km/h (1 Bft)
_ Min-Zeit 05:14 16:45 - 20:35 - - 12:24 02:39 23:45
Minimum _ 7,7 C 26 % - 0,0 km/h (0 Bft) - - 5,0 C 7,9 C 0,0 km/h (0 Bft)
_ Max-Zeit 16:10 05:24 23:55 13:30 - - 10:04 18:45 13:20
Maximum _ 28,7 C 89 % 0,0 l/m 8,7 km/h
SO (2 Bft)
- - 12,6 C 32,2 C 18,7 km/h
S-SO (3 Bft)
Durchschnitt _ 19,2 C 54 % #0,0 l/m 2,1 km/h (1 Bft) S - 8,2 C 21,2 C 2,9 km/h (1 Bft)